Flight Track Log - Related Links

Times and Time Zones

All times are in EDT time to prevent confusion due to time zone crossing. See the AWE1913 flight status page for this flight to view local times or setup timezone preferences in your user account.

Time Position Orientation Groundspeed Altitude Reporting Facility
EDT Latitude Longitude Course Direction KTS MPH feet Rate Location/Type
Thu 07:40:01 AM 42.2017 -83.3553 97° East 140 161 1,800  Level Cleveland Center
Thu 07:41:08 AM 42.1542 -83.3392 166° South 196 226 3,400 1,836 Climbing Cleveland Center
Thu 07:42:00 AM 42.2167 -82.8387 90° East  Level FlightAware Approximate
Thu 07:42:15 AM 42.0942 -83.3117 161° South 235 270 5,900  Level Cleveland Center
Thu 07:43:00 AM 42.2167 -82.6659 90° East  Level FlightAware Approximate
Thu 07:43:02 AM 42.0836 -83.2272 100° East 308 354 7,900  Level Cleveland Center
Thu 07:44:00 AM 42.2167 -82.4931 90° East  Level FlightAware Approximate
Thu 07:44:02 AM 42.1050 -83.1106 76° East 329 379 10,300  Level Cleveland Center
Thu 07:45:00 AM 42.2071 -82.3211 97° East  Level FlightAware Approximate
Thu 07:45:02 AM 42.1289 -82.9769 76° East 381 438 12,000  Level Cleveland Center
Thu 07:46:02 AM 42.1544 -82.8378 76° East 416 479 13,500 1,500 Climbing Cleveland Center
Thu 07:47:02 AM 42.1425 -82.7003 97° East 392 451 15,000 1,600 Climbing Cleveland Center
Thu 07:48:02 AM 42.1053 -82.5675 111° Southeast 371 427 16,700 1,450 Climbing Cleveland Center
Thu 07:49:02 AM 42.0700 -82.4350 110° East 371 427 17,900 1,150 Climbing Cleveland Center
Thu 07:50:02 AM 42.0264 -82.3022 114° Southeast 376 433 19,000 1,200 Climbing Cleveland Center
Thu 07:51:02 AM 41.9717 -82.1806 121° Southeast 376 433 20,300 1,550 Climbing Cleveland Center
Thu 07:52:02 AM 41.9150 -82.0508 120° Southeast 394 453 22,100 1,900 Climbing Cleveland Center
Thu 07:53:02 AM 41.8583 -81.9214 120° Southeast 403 464 24,100 1,650 Climbing Cleveland Center
Thu 07:54:02 AM 41.7994 -81.7892 121° Southeast 410 472 25,400 1,400 Climbing Cleveland Center
Thu 07:55:02 AM 41.7381 -81.6544 121° Southeast 415 478 26,900 1,500 Climbing Cleveland Center
Thu 07:56:02 AM 41.6769 -81.5172 121° Southeast 420 483 28,400 1,100 Climbing Cleveland Center
Thu 07:57:02 AM 41.6194 -81.3914 121° Southeast 428 493 29,100 950 Climbing Cleveland Center
Thu 07:58:02 AM 41.5536 -81.2492 122° Southeast 442 509 30,300 1,200 Climbing Cleveland Center
Thu 07:59:02 AM 41.4814 -81.1125 125° Southeast 442 509 31,500 1,100 Climbing Cleveland Center
Thu 08:00:02 AM 41.3944 -80.9956 135° Southeast 447 514 32,500 750 Climbing Cleveland Center
Thu 08:01:02 AM 41.2989 -80.8594 133° Southeast 447 514 33,000 250 Climbing Cleveland Center
Thu 08:02:02 AM 41.2114 -80.7406 134° Southeast 447 514 33,000  Level Cleveland Center
Thu 08:03:02 AM 41.1428 -80.6467 134° Southeast 447 514 33,000  Level Cleveland Center
Thu 08:04:02 AM 41.0511 -80.5142 133° Southeast 447 514 33,000  Level Cleveland Center
Thu 08:05:02 AM 40.9633 -80.3961 135° Southeast 447 514 33,000  Level Cleveland Center
Thu 08:06:02 AM 40.8778 -80.2811 135° Southeast 441 507 33,000  Level Cleveland Center
Thu 08:07:02 AM 40.8044 -80.1553 128° Southeast 441 507 33,000  Level Cleveland Center
Thu 08:08:02 AM 40.7475 -80.0047 116° Southeast 441 507 33,000  Level Cleveland Center
Thu 08:09:02 AM 40.6922 -79.8411 114° Southeast 441 507 33,000  Level Cleveland Center
Thu 08:10:02 AM 40.6267 -79.7078 123° Southeast 441 507 33,000  Level Cleveland Center
Thu 08:11:02 AM 40.5547 -79.5747 125° Southeast 441 507 33,000  Level Cleveland Center
Thu 08:12:02 AM 40.4908 -79.4392 122° Southeast 441 507 33,000 50 Level Cleveland Center
Thu 08:13:02 AM 40.4561 -79.3169 110° East 441 507 33,100  Climbing Cleveland Center
Thu 08:14:02 AM 40.4042 -79.1517 112° Southeast 441 507 33,000 -300 Descending Cleveland Center
Thu 08:15:02 AM 40.3625 -79.0000 110° East 447 514 32,500 -850 Descending Cleveland Center
Thu 08:16:02 AM 40.3247 -78.8267 106° East 447 514 31,300 -750 Descending Cleveland Center
Thu 08:17:02 AM 40.3158 -78.6633 94° East 447 514 31,000 -3,650 Descending Cleveland Center
Thu 08:18:02 AM 40.3150 -78.5000 90° East 447 514 24,000 -1,564 Descending Cleveland Center
Thu 08:20:10 AM 40.3144 -78.1839 90° East 441 507 26,100 32 Climbing New York Center
Thu 08:21:09 AM 40.3114 -78.0311 91° East 435 501 24,100 -1,050 Descending New York Center
Thu 08:22:10 AM 40.3128 -77.8706 89° East 435 501 24,000 -195 Descending New York Center
Thu 08:23:12 AM 40.3097 -77.7122 91° East 435 501 23,700 -590 Descending New York Center
Thu 08:24:12 AM 40.3106 -77.5544 90° East 435 501 22,800 -915 Descending New York Center
Thu 08:25:10 AM 40.3086 -77.4017 91° East 429 494 21,900 -1,008 Descending New York Center
Thu 08:26:11 AM 40.3044 -77.2517 92° East 424 488 20,800 -1,033 Descending New York Center
Thu 08:27:12 AM 40.3019 -77.1044 91° East 424 488 19,800 -908 Descending New York Center
Thu 08:28:10 AM 40.2764 -76.9578 103° East 410 472 19,000 -857 Descending New York Center
Thu 08:29:11 AM 40.2442 -76.8189 107° East 405 466 18,100 -836 Descending New York Center
Thu 08:30:12 AM 40.2100 -76.6664 106° East 395 455 17,300 -843 Descending New York Center
Thu 08:31:12 AM 40.1769 -76.5358 108° East 389 448 16,400 -950 Descending New York Center
Thu 08:32:12 AM 40.1478 -76.4031 106° East 384 442 15,400 -1,079 Descending New York Center
Thu 08:32:41 AM 40.1319 -76.3400 108° East 365 420 14,800 -1,224 Descending FAA TRACON SMA TRACON (SMA)
Thu 08:33:01 AM 40.1228 -76.2981 106° East 330 380 14,400 -1,650 Descending FAA TRACON SMA TRACON (SMA)
Thu 08:33:21 AM 40.1175 -76.2614 101° East 318 366 13,700 -2,100 Descending FAA TRACON SMA TRACON (SMA)
Thu 08:33:41 AM 40.1164 -76.2258 92° East 317 365 13,000 -2,550 Descending FAA TRACON SMA TRACON (SMA)
Thu 08:34:01 AM 40.1128 -76.1817 96° East 318 366 12,000 -2,700 Descending FAA TRACON SMA TRACON (SMA)
Thu 08:34:21 AM 40.1103 -76.1464 95° East 317 365 11,200 -2,100 Descending FAA TRACON SMA TRACON (SMA)
Thu 08:34:41 AM 40.1078 -76.1111 95° East 317 365 10,600 -1,950 Descending FAA TRACON SMA TRACON (SMA)
Thu 08:35:01 AM 40.1053 -76.0678 94° East 315 362 9,900 -2,100 Descending FAA TRACON SMA TRACON (SMA)
Thu 08:35:21 AM 40.1025 -76.0336 96° East 309 356 9,200 -2,100 Descending FAA TRACON SMA TRACON (SMA)
Thu 08:35:41 AM 40.1006 -75.9989 94° East 300 345 8,500 -1,800 Descending FAA TRACON SMA TRACON (SMA)
Thu 08:36:01 AM 40.0975 -75.9603 96° East 296 341 8,000 -750 Descending FAA TRACON SMA TRACON (SMA)
Thu 08:36:21 AM 40.0950 -75.9275 96° East 294 338 8,000 -150 Level FAA TRACON SMA TRACON (SMA)
Thu 08:36:41 AM 40.0931 -75.8956 95° East 294 338 7,900  Descending FAA TRACON SMA TRACON (SMA)
Thu 08:37:01 AM 40.0903 -75.8547 95° East 295 339 8,000 150 Climbing FAA TRACON SMA TRACON (SMA)
Thu 08:37:21 AM 40.0878 -75.8206 95° East 294 338 8,000  Level FAA TRACON SMA TRACON (SMA)
Thu 08:37:41 AM 40.0856 -75.7883 95° East 295 339 8,000 -150 Level FAA TRACON SMA TRACON (SMA)
Thu 08:38:01 AM 40.0828 -75.7506 95° East 288 331 7,900  Descending FAA TRACON SMA TRACON (SMA)
Thu 08:38:21 AM 40.0906 -75.7225 70° East 262 302 8,000 150 Climbing FAA TRACON SMA TRACON (SMA)
Thu 08:38:41 AM 40.1064 -75.7028 44° Northeast 266 306 8,000 -150 Level FAA TRACON SMA TRACON (SMA)
Thu 08:39:01 AM 40.1256 -75.6781 45° Northeast 261 300 7,900 -150 Descending FAA TRACON SMA TRACON (SMA)
Thu 08:39:21 AM 40.1406 -75.6561 48° Northeast 258 297 7,900 -450 Level FAA TRACON SMA TRACON (SMA)
Thu 08:39:41 AM 40.1547 -75.6344 49° Northeast 255 293 7,600 -1,200 Descending FAA TRACON SMA TRACON (SMA)
Thu 08:40:01 AM 40.1733 -75.6083 47° Northeast 255 293 7,100 -900 Descending FAA TRACON SMA TRACON (SMA)
Thu 08:40:21 AM 40.1878 -75.5872 48° Northeast 253 291 7,000 -150 Descending FAA TRACON SMA TRACON (SMA)
Thu 08:40:41 AM 40.2022 -75.5658 49° Northeast 254 292 7,000  Level FAA TRACON SMA TRACON (SMA)
Thu 08:41:01 AM 40.2164 -75.5439 50° Northeast 256 295 7,000  Level FAA TRACON SMA TRACON (SMA)
Thu 08:41:21 AM 40.2294 -75.5139 60° Northeast 247 284 7,000  Level FAA TRACON SMA TRACON (SMA)
Thu 08:41:41 AM 40.2264 -75.4872 99° East 244 281 7,000  Level FAA TRACON SMA TRACON (SMA)
Thu 08:42:01 AM 40.2083 -75.4658 138° Southeast 232 267 7,000 -300 Level FAA TRACON SMA TRACON (SMA)
Thu 08:42:21 AM 40.1892 -75.4600 167° South 224 258 6,800 -900 Descending FAA TRACON SMA TRACON (SMA)
Thu 08:42:41 AM 40.1719 -75.4544 166° South 217 250 6,400 -1,050 Descending FAA TRACON SMA TRACON (SMA)
Thu 08:43:01 AM 40.1572 -75.4494 165° South 220 253 6,100 -600 Descending FAA TRACON SMA TRACON (SMA)
Thu 08:43:21 AM 40.1300 -75.4403 166° South 219 252 6,000 -150 Descending FAA TRACON SMA TRACON (SMA)
Thu 08:43:41 AM 40.1117 -75.4342 166° South 219 252 6,000  Level FAA TRACON SMA TRACON (SMA)
Thu 08:44:01 AM 40.0900 -75.4281 168° South 218 251 6,000  Level FAA TRACON SMA TRACON (SMA)
Thu 08:44:21 AM 40.0708 -75.4208 164° South 218 251 6,000  Level FAA TRACON SMA TRACON (SMA)
Thu 08:44:41 AM 40.0528 -75.4150 166° South 218 251 6,000  Level FAA TRACON SMA TRACON (SMA)
Thu 08:45:01 AM 40.0308 -75.4086 167° South 218 251 6,000  Level FAA TRACON SMA TRACON (SMA)
Thu 08:45:21 AM 40.0119 -75.4028 167° South 218 251 6,000  Level FAA TRACON SMA TRACON (SMA)
Thu 08:45:41 AM 39.9936 -75.3967 166° South 216 249 6,000  Level FAA TRACON SMA TRACON (SMA)
Thu 08:46:00 AM 39.9783 -75.3922 167° South 215 247 6,000  Level FAA TRACON SMA TRACON (SMA)
Thu 08:46:21 AM 39.9533 -75.3853 168° South 217 250 6,000  Level FAA TRACON SMA TRACON (SMA)
Thu 08:46:40 AM 39.9361 -75.3894 191° South 190 219 6,000  Level FAA TRACON SMA TRACON (SMA)
Thu 08:47:01 AM 39.9278 -75.4128 245° Southwest 198 228 6,000  Level FAA TRACON SMA TRACON (SMA)
Thu 08:47:20 AM 39.9242 -75.4275 252° West 196 226 6,000  Level FAA TRACON SMA TRACON (SMA)
Thu 08:47:40 AM 39.9186 -75.4539 255° West 192 221 6,000 -300 Level FAA TRACON SMA TRACON (SMA)
Thu 08:48:00 AM 39.9142 -75.4692 249° West 173 199 5,800 -1,200 Descending FAA TRACON SMA TRACON (SMA)
Thu 08:48:20 AM 39.9089 -75.4944 255° West 170 196 5,200 -1,200 Descending FAA TRACON SMA TRACON (SMA)
Thu 08:48:40 AM 39.9047 -75.5128 254° West 173 199 5,000 -450 Descending FAA TRACON SMA TRACON (SMA)
Thu 08:49:00 AM 39.9011 -75.5297 254° West 173 199 4,900  Descending FAA TRACON SMA TRACON (SMA)
Thu 08:49:20 AM 39.8961 -75.5553 256° West 176 203 5,000 150 Climbing FAA TRACON SMA TRACON (SMA)
Thu 08:49:40 AM 39.8919 -75.5747 254° West 177 204 5,000  Level FAA TRACON SMA TRACON (SMA)
Thu 08:50:00 AM 39.8872 -75.5897 248° West 176 203 5,000  Level FAA TRACON SMA TRACON (SMA)
Thu 08:50:20 AM 39.8833 -75.6169 259° West 174 200 5,000 -150 Level FAA TRACON SMA TRACON (SMA)
Thu 08:50:40 AM 39.8792 -75.6353 254° West 174 200 4,900 -450 Descending FAA TRACON SMA TRACON (SMA)
Thu 08:51:00 AM 39.8742 -75.6578 254° West 173 199 4,700 -750 Descending FAA TRACON SMA TRACON (SMA)
Thu 08:51:20 AM 39.8686 -75.6753 248° West 166 191 4,400 -1,050 Descending FAA TRACON SMA TRACON (SMA)
Thu 08:51:40 AM 39.8564 -75.6797 196° South 152 175 4,000 -750 Descending FAA TRACON SMA TRACON (SMA)
Thu 08:52:00 AM 39.8456 -75.6731 155° Southeast 168 193 3,900 -150 Descending FAA TRACON SMA TRACON (SMA)
Thu 08:52:20 AM 39.8292 -75.6600 149° Southeast 172 198 3,900 -450 Level FAA TRACON SMA TRACON (SMA)
Thu 08:52:40 AM 39.8175 -75.6478 141° Southeast 164 189 3,600 -1,050 Descending FAA TRACON SMA TRACON (SMA)
Thu 08:53:00 AM 39.8089 -75.6275 119° Southeast 189 217 3,200 -900 Descending FAA TRACON SMA TRACON (SMA)
Thu 08:53:20 AM 39.8064 -75.6081 99° East 177 204 3,000 -419 Descending FAA TRACON SMA TRACON (SMA)
Thu 08:53:43 AM 39.8031 -75.5850 101° East 171 197 2,900 -140 Descending FAA TRACON SMA TRACON (SMA)
Thu 08:54:03 AM 39.8031 -75.5669 90° East 172 198 2,900  Level FAA TRACON SMA TRACON (SMA)
Thu 08:54:21 AM 39.8067 -75.5469 77° East 180 207 2,900  Level FAA TRACON SMA TRACON (SMA)
Thu 08:54:41 AM 39.8100 -75.5269 78° East 172 198 2,900  Level FAA TRACON SMA TRACON (SMA)
Thu 08:55:01 AM 39.8142 -75.5058 76° East 173 199 2,900  Level FAA TRACON SMA TRACON (SMA)
Thu 08:55:20 AM 39.8181 -75.4864 75° East 173 199 2,900  Level FAA TRACON SMA TRACON (SMA)
Thu 08:55:41 AM 39.8222 -75.4672 74° East 174 200 2,900 -300 Level FAA TRACON SMA TRACON (SMA)
Thu 08:56:00 AM 39.8269 -75.4442 75° East 174 200 2,700 -769 Descending FAA TRACON SMA TRACON (SMA)
Thu 08:56:20 AM 39.8303 -75.4258 77° East 172 198 2,400 -878 Descending FAA TRACON SMA TRACON (SMA)
Thu 08:56:41 AM 39.8344 -75.4072 74° East 171 197 2,100 -900 Descending FAA TRACON SMA TRACON (SMA)
Thu 08:57:00 AM 39.8389 -75.3844 76° East 169 194 1,800 -947 Descending FAA TRACON SMA TRACON (SMA)

Login

Don't have an account? Register now (free) for customized features, flight alerts, and more!